Tererro, New Mexico
Current Conditions -  °F | °C
As of 6:53 AM on Saturday 20 Dec 2014 (Local Time) from KSAF Reporting Station
Clear Clear  
Wind Chill:   Ceiling: Unl
Heat Index: 22°   Visibility: 10mi
Dew Point: 15°   Wind: 15mph
Humidity: 75%   Direction: 350°N
Pressure: 30.09"   Gusts: NA
Location:  35.76°N, 105.67°W
Report Text: KSAF 201353Z 35013KT 10SM CLR M06/M09 A3009 RMK AO2 SLP201 T10561094
Loading
Personal Weather Stations






























Interactive Weather Map New forecast layout! Learn more

10-Day Weather Forecast

Advertisements
Track Severe Weather on mobile